createdAt,value
2019-04-27T00:04:55.809Z,23.57
2019-04-27T00:10:05.175Z,24.53
2019-04-27T00:15:13.187Z,21.57
2019-04-27T00:20:37.275Z,20.53
2019-04-27T00:25:43.781Z,26.23
2019-04-27T00:30:49.166Z,27.17
2019-04-27T00:36:00.262Z,26.17
2019-04-27T00:41:11.121Z,33.40
2019-04-27T00:46:16.415Z,31.83
2019-04-27T00:51:23.042Z,29.07
2019-04-27T00:56:53.147Z,33.53
2019-04-27T01:02:26.503Z,30.63
2019-04-27T01:07:36.538Z,32.73
2019-04-27T01:12:42.919Z,28.67
2019-04-27T01:17:49.127Z,34.30
2019-04-27T01:22:54.438Z,28.33
2019-04-27T01:28:21.638Z,32.87
2019-04-27T01:33:30.324Z,31.33
2019-04-27T01:39:19.595Z,30.13
2019-04-27T01:44:24.936Z,31.37
2019-04-27T01:49:31.305Z,36.77
2019-04-27T01:54:54.483Z,34.00
2019-04-27T02:00:00.553Z,40.00
2019-04-27T02:05:23.883Z,37.20
2019-04-27T02:10:31.597Z,39.97
2019-04-27T02:15:39.567Z,36.97
2019-04-27T02:20:50.202Z,32.70
2019-04-27T02:25:56.277Z,30.93
2019-04-27T02:31:30.674Z,32.57
2019-04-27T02:36:35.733Z,32.77
2019-04-27T02:41:40.756Z,32.30
2019-04-27T02:46:55.775Z,39.37
2019-04-27T02:52:20.160Z,30.83
2019-04-27T02:57:26.399Z,38.17
2019-04-27T03:02:52.046Z,41.07
2019-04-27T03:07:59.387Z,41.03
2019-04-27T03:13:11.259Z,42.50
2019-04-27T03:18:35.635Z,31.77
2019-04-27T03:23:41.295Z,40.87
2019-04-27T03:28:46.431Z,42.27
2019-04-27T03:33:58.286Z,36.53
2019-04-27T03:39:00.105Z,36.60
2019-04-27T03:44:05.144Z,32.90
2019-04-27T03:49:27.317Z,33.77
2019-04-27T03:54:36.403Z,30.03
2019-04-27T03:59:59.728Z,31.53
2019-04-27T04:05:30.094Z,32.70
2019-04-27T04:10:39.199Z,29.17
2019-04-27T04:15:54.387Z,36.67
2019-04-27T04:21:00.554Z,36.70
2019-04-27T04:26:22.314Z,40.30
2019-04-27T04:31:32.546Z,38.57
2019-04-27T04:36:34.110Z,31.93
2019-04-27T04:42:03.926Z,34.20
2019-04-27T04:47:55.227Z,29.57
2019-04-27T04:53:01.269Z,29.63
2019-04-27T04:58:06.359Z,28.27
2019-04-27T05:03:11.665Z,27.43
2019-04-27T05:08:18.926Z,29.57
2019-04-27T05:13:24.564Z,32.43
2019-04-27T05:18:31.400Z,31.00
2019-04-27T05:23:36.354Z,31.43
2019-04-27T05:28:41.748Z,27.40
2019-04-27T05:33:46.843Z,31.53
2019-04-27T05:38:51.973Z,39.97
2019-04-27T05:44:31.099Z,35.97
2019-04-27T05:49:44.467Z,37.10
2019-04-27T05:54:49.710Z,41.40
2019-04-27T05:59:55.111Z,41.50
2019-04-27T06:05:00.978Z,36.63
2019-04-27T06:10:06.513Z,35.73
2019-04-27T06:15:12.137Z,36.77
2019-04-27T06:20:18.850Z,33.53
2019-04-27T06:25:24.039Z,31.93
2019-04-27T06:30:29.488Z,33.93
2019-04-27T06:35:34.951Z,33.63
2019-04-27T06:40:40.487Z,35.33
2019-04-27T06:45:45.546Z,33.57
2019-04-27T06:51:02.682Z,35.50
2019-04-27T06:55:59.811Z,29.27
2019-04-27T07:01:05.436Z,29.93
2019-04-27T07:06:13.701Z,30.90
2019-04-27T07:11:19.691Z,32.73
2019-04-27T07:16:26.179Z,30.60
2019-04-27T07:21:31.616Z,33.53
2019-04-27T07:26:38.879Z,30.37
2019-04-27T07:31:43.665Z,28.77
2019-04-27T07:36:49.242Z,25.93
2019-04-27T07:41:55.209Z,24.87
2019-04-27T07:47:39.229Z,23.30
2019-04-27T07:52:44.443Z,24.50
2019-04-27T07:57:50.433Z,22.00
2019-04-27T08:02:55.899Z,25.70
2019-04-27T08:08:01.093Z,25.10
2019-04-27T08:13:06.528Z,25.07
2019-04-27T08:18:11.762Z,26.03
2019-04-27T08:23:17.041Z,26.30
2019-04-27T08:28:38.657Z,23.37
2019-04-27T08:33:52.045Z,22.40
2019-04-27T08:39:00.952Z,22.63
2019-04-27T08:44:09.797Z,23.90
2019-04-27T08:49:18.511Z,26.57
2019-04-27T08:54:42.535Z,25.37
2019-04-27T08:59:56.697Z,21.30
2019-04-27T09:05:02.397Z,22.47
2019-04-27T09:10:18.771Z,23.00
2019-04-27T09:15:39.463Z,23.03
2019-04-27T09:20:56.753Z,22.43
2019-04-27T09:26:01.952Z,22.43
2019-04-27T09:31:09.101Z,21.17
2019-04-27T09:36:16.530Z,22.27
2019-04-27T09:41:26.245Z,20.17
2019-04-27T09:46:32.198Z,19.87
2019-04-27T09:51:39.915Z,17.43
2019-04-27T09:56:53.109Z,21.40
2019-04-27T10:02:01.126Z,20.10
2019-04-27T10:07:07.823Z,19.82
2019-04-27T10:12:15.805Z,20.10
2019-04-27T10:17:31.467Z,19.43
2019-04-27T10:22:42.841Z,18.92
2019-04-27T10:39:31.759Z,18.15
2019-04-27T10:44:46.345Z,18.77
2019-04-27T10:50:00.819Z,18.55
2019-04-27T11:00:38.638Z,17.12
2019-04-27T11:06:09.699Z,18.07
2019-04-27T11:11:15.337Z,18.87
2019-04-27T11:16:27.638Z,18.27
2019-04-27T11:21:38.479Z,19.13
2019-04-27T11:32:59.306Z,15.78
2019-04-27T11:38:10.013Z,13.13
2019-04-27T11:43:16.158Z,12.47
2019-04-27T11:48:30.782Z,12.63
2019-04-27T11:53:36.726Z,13.90
2019-04-27T11:58:44.816Z,12.37
2019-04-27T12:03:55.631Z,12.78
2019-04-27T12:09:00.732Z,11.93
2019-04-27T12:14:09.475Z,12.00
2019-04-27T12:19:16.329Z,12.78
2019-04-27T12:24:35.588Z,11.68
2019-04-27T12:29:59.948Z,12.65
2019-04-27T12:35:06.765Z,11.12
2019-04-27T12:40:14.027Z,13.08
2019-04-27T12:45:21.207Z,13.55
2019-04-27T12:50:27.865Z,11.50
2019-04-27T12:55:52.804Z,11.43
2019-04-27T13:00:59.714Z,12.10
2019-04-27T13:06:10.476Z,12.50
2019-04-27T13:11:17.177Z,12.70
2019-04-27T13:16:24.617Z,13.03
2019-04-27T13:21:30.615Z,14.67
2019-04-27T13:26:38.094Z,11.97
2019-04-27T13:31:44.415Z,12.80
2019-04-27T13:36:49.599Z,11.73
2019-04-27T13:41:56.334Z,12.63
2019-04-27T13:47:21.008Z,12.23
2019-04-27T13:52:29.996Z,13.30
2019-04-27T13:57:44.024Z,12.80
2019-04-27T14:02:44.155Z,12.17
2019-04-27T14:07:51.296Z,12.90
2019-04-27T14:12:59.051Z,13.67
2019-04-27T14:18:05.726Z,16.15
2019-04-27T14:23:13.989Z,13.98
2019-04-27T14:28:43.526Z,11.33
2019-04-27T14:33:58.786Z,10.90
2019-04-27T14:39:18.492Z,11.70
2019-04-27T14:44:29.264Z,10.75
2019-04-27T14:49:36.959Z,11.53
2019-04-27T14:54:48.134Z,13.00
2019-04-27T14:59:54.147Z,12.33
2019-04-27T15:05:00.860Z,12.20
2019-04-27T15:10:08.461Z,12.90
2019-04-27T15:15:17.353Z,14.43
2019-04-27T15:20:32.828Z,11.73
2019-04-27T15:25:45.193Z,13.98
2019-04-27T15:31:22.376Z,12.10
2019-04-27T15:36:32.894Z,13.70
2019-04-27T15:41:48.513Z,14.95
2019-04-27T15:46:54.445Z,14.15
2019-04-27T15:52:00.149Z,14.07
2019-04-27T15:57:12.357Z,11.48
2019-04-27T16:02:15.562Z,12.03
2019-04-27T16:07:24.860Z,14.85
2019-04-27T16:12:28.821Z,11.67
2019-04-27T16:17:34.355Z,13.73
2019-04-27T16:22:41.018Z,12.13
2019-04-27T16:33:22.009Z,13.13
2019-04-27T16:38:47.989Z,16.27
2019-04-27T16:43:54.015Z,15.17
2019-04-27T16:48:59.889Z,14.87
2019-04-27T16:54:11.130Z,16.30
2019-04-27T16:59:38.661Z,15.17
2019-04-27T17:04:25.730Z,15.70
2019-04-27T17:09:31.221Z,15.77
2019-04-27T17:14:58.661Z,16.63
2019-04-27T17:20:12.938Z,19.73
2019-04-27T17:25:20.072Z,21.70
2019-04-27T17:30:30.966Z,20.80
2019-04-27T17:35:41.295Z,16.93
2019-04-27T17:40:45.699Z,17.23
2019-04-27T17:45:50.806Z,16.10
2019-04-27T17:51:02.563Z,13.23
2019-04-27T17:56:08.591Z,16.03
2019-04-27T18:01:19.088Z,19.53
2019-04-27T18:06:29.414Z,15.93
2019-04-27T18:11:37.304Z,16.20
2019-04-27T18:16:43.740Z,15.23
2019-04-27T18:22:01.157Z,13.93
2019-04-27T18:27:18.381Z,13.23
2019-04-27T18:32:27.738Z,13.67
2019-04-27T18:37:32.650Z,11.80
2019-04-27T18:42:39.009Z,13.20
2019-04-27T18:47:48.177Z,13.03
2019-04-27T18:52:58.764Z,12.40
2019-04-27T18:58:04.750Z,13.50
2019-04-27T19:03:12.795Z,14.77
2019-04-27T19:08:24.816Z,17.30
2019-04-27T19:13:56.227Z,13.87
2019-04-27T19:19:02.516Z,14.33
2019-04-27T19:24:09.188Z,14.27
2019-04-27T19:29:19.772Z,12.73
2019-04-27T19:34:25.663Z,14.50
2019-04-27T19:39:32.010Z,13.30
2019-04-27T19:44:38.921Z,14.83
2019-04-27T19:49:45.275Z,15.07
2019-04-27T19:54:51.252Z,16.33
2019-04-27T19:59:58.921Z,17.10
2019-04-27T20:05:06.947Z,18.50
2019-04-27T20:10:14.479Z,17.90
2019-04-27T20:15:21.431Z,16.57
2019-04-27T20:20:26.850Z,14.60
2019-04-27T20:25:32.284Z,19.23
2019-04-27T20:30:37.663Z,18.87
2019-04-27T20:35:45.204Z,20.80
2019-04-27T20:40:51.071Z,16.90
2019-04-27T20:45:58.057Z,14.47
2019-04-27T20:51:03.204Z,14.60
2019-04-27T20:56:12.415Z,17.83
2019-04-27T21:01:18.577Z,23.33
2019-04-27T21:06:43.177Z,18.63
2019-04-27T21:11:49.385Z,18.20
2019-04-27T21:16:54.756Z,18.43
2019-04-27T21:22:01.211Z,17.73
2019-04-27T21:27:16.809Z,19.20
2019-04-27T21:32:22.757Z,19.80
2019-04-27T21:37:27.869Z,20.10
2019-04-27T21:42:34.618Z,17.40
2019-04-27T21:47:41.342Z,13.73
2019-04-27T21:53:21.202Z,14.53
2019-04-27T21:58:28.777Z,21.43
2019-04-27T22:03:35.149Z,18.37
2019-04-27T22:14:26.208Z,16.63
2019-04-27T22:19:31.358Z,19.33
2019-04-27T22:24:42.793Z,22.27
2019-04-27T22:29:46.925Z,14.60
2019-04-27T22:34:52.049Z,17.20
2019-04-27T22:40:19.237Z,20.87
2019-04-27T22:45:31.194Z,18.13
2019-04-27T22:50:36.711Z,19.07
2019-04-27T22:56:01.422Z,16.67
2019-04-27T23:01:26.020Z,19.67
2019-04-27T23:06:32.769Z,16.37
2019-04-27T23:11:37.840Z,16.30
2019-04-27T23:16:49.526Z,16.00
2019-04-27T23:21:54.499Z,21.07
2019-04-27T23:27:03.461Z,21.83
2019-04-27T23:32:12.873Z,20.00
2019-04-27T23:37:18.247Z,19.80
2019-04-27T23:42:25.266Z,24.33
2019-04-27T23:47:30.791Z,23.67
2019-04-27T23:52:53.729Z,24.07
2019-04-27T23:57:59.095Z,20.93
